CheckWX is a tool to help pilots better visualize weather data.  It is not intended as a substitute for an official pre-flight weather briefing.

18:34:10 UTC

ESUT METAR
Hemavan Airport
Sweden
Current

14 mins ago

ESUT 221820Z AUTO 35007KT 320V030 7000 -RA FEW016/// BKN024/// OVC031/// 03/03 Q1021 REFZUP
Observed
Feb-22 @ 18:20 UTC
Wind
  • 350° at 7 KTS
Visibility
7,001 meters
Flight Rules
MVFR
Conditions
Light Rain
Cloud Levels
  • Few at 1,600' AGL
  • Broken at 2,400' AGL
  • Overcast at 3,100' AGL
Temperature
C / 37°F
Dewpoint
C / 37°F
Humidity
100%
Altimeter
30.15" Hg
Pressure
1020.92 hPa
Previous

44 mins ago

ESUT 221750Z AUTO 00000KT 9999 -FZDZ OVC020/// M00/M00 Q1021 RESHUP
Observed
Feb-22 @ 17:50 UTC
Visibility
10,000+ meters
Flight Rules
MVFR
Conditions
Light Freezing Light Drizzle
Cloud Levels
  • Overcast at 2,000' AGL
Temperature
C / 32°F
Dewpoint
C / 32°F
Humidity
100%
Altimeter
30.15" Hg
Pressure
1020.92 hPa
Previous

1 hour ago

ESUT 221720Z AUTO VRB01KT 8000 -FZDZ SCT015/// OVC019/// M03/M03 Q1021
Observed
Feb-22 @ 17:20 UTC
Wind
  • Variable at 1 KTS
Visibility
7,998 meters
Flight Rules
MVFR
Conditions
Light Freezing Light Drizzle
Cloud Levels
  • Scattered at 1,500' AGL
  • Overcast at 1,900' AGL
Temperature
-3°C / 27°F
Dewpoint
-3°C / 27°F
Humidity
100%
Altimeter
30.15" Hg
Pressure
1020.92 hPa